createdAt,value
2023-04-13T00:04:10.005Z,8.90
2023-04-13T00:09:12.933Z,7.63
2023-04-13T00:14:15.451Z,6.97
2023-04-13T00:19:18.023Z,7.43
2023-04-13T00:24:21.077Z,9.83
2023-04-13T00:29:23.884Z,10.87
2023-04-13T00:34:26.474Z,7.90
2023-04-13T00:39:31.136Z,12.37
2023-04-13T00:44:33.666Z,12.07
2023-04-13T00:49:36.525Z,7.40
2023-04-13T00:54:39.266Z,11.63
2023-04-13T00:59:41.809Z,10.33
2023-04-13T01:04:45.916Z,16.03
2023-04-13T01:10:08.876Z,11.63
2023-04-13T01:15:16.519Z,18.13
2023-04-13T01:20:20.224Z,17.60
2023-04-13T01:25:31.826Z,12.60
2023-04-13T01:30:36.071Z,12.83
2023-04-13T01:35:39.829Z,16.03
2023-04-13T01:40:44.653Z,9.33
2023-04-13T01:45:54.018Z,15.40
2023-04-13T01:51:20.299Z,15.93
2023-04-13T01:56:28.632Z,19.23
2023-04-13T02:01:38.461Z,17.90
2023-04-13T02:06:41.064Z,13.63
2023-04-13T02:11:44.354Z,10.77
2023-04-13T02:16:47.511Z,8.33
2023-04-13T02:21:50.570Z,12.43
2023-04-13T02:26:54.472Z,14.97
2023-04-13T02:31:57.921Z,17.43
2023-04-13T02:37:00.998Z,19.10
2023-04-13T02:42:04.362Z,17.83
2023-04-13T02:47:09.557Z,18.23
2023-04-13T02:52:13.409Z,9.80
2023-04-13T02:57:25.249Z,18.57
2023-04-13T03:02:30.205Z,15.40
2023-04-13T03:07:34.321Z,13.33
2023-04-13T03:12:37.654Z,13.17
2023-04-13T03:17:44.122Z,17.50
2023-04-13T03:22:53.651Z,11.50
2023-04-13T03:27:58.284Z,15.87
2023-04-13T03:33:04.603Z,14.87
2023-04-13T03:38:11.531Z,17.80
2023-04-13T03:43:18.601Z,17.90
2023-04-13T03:48:27.970Z,18.13
2023-04-13T03:53:30.493Z,17.53
2023-04-13T03:58:33.413Z,14.07
2023-04-13T04:03:38.512Z,15.87
2023-04-13T04:08:45.484Z,18.03
2023-04-13T04:14:01.062Z,17.50
2023-04-13T04:19:04.284Z,14.40
2023-04-13T04:24:08.913Z,17.23
2023-04-13T04:29:14.244Z,15.07
2023-04-13T04:34:17.283Z,18.77
2023-04-13T04:39:23.816Z,11.73
2023-04-13T04:44:34.219Z,14.97
2023-04-13T04:49:41.850Z,11.13
2023-04-13T04:54:44.720Z,15.17
2023-04-13T04:59:49.356Z,16.30
2023-04-13T05:04:53.326Z,14.33
2023-04-13T05:09:58.053Z,18.30
2023-04-13T05:15:01.884Z,18.93
2023-04-13T05:20:07.220Z,16.80
2023-04-13T05:25:41.857Z,15.07
2023-04-13T05:30:52.531Z,15.37
2023-04-13T05:35:55.601Z,16.53
2023-04-13T05:40:58.929Z,19.53
2023-04-13T05:46:01.936Z,19.57
2023-04-13T05:51:04.677Z,21.13
2023-04-13T05:56:09.686Z,20.57
2023-04-13T06:01:14.686Z,15.67
2023-04-13T06:06:17.594Z,18.23
2023-04-13T06:11:21.006Z,17.57
2023-04-13T06:16:24.029Z,19.40
2023-04-13T06:21:28.639Z,19.97
2023-04-13T06:26:31.702Z,19.00
2023-04-13T06:31:34.498Z,18.10
2023-04-13T06:36:41.797Z,16.57
2023-04-13T06:41:47.908Z,13.20
2023-04-13T06:46:57.812Z,15.40
2023-04-13T06:52:02.672Z,15.60
2023-04-13T06:57:05.477Z,11.70
2023-04-13T07:02:09.757Z,15.60
2023-04-13T07:07:13.038Z,16.33
2023-04-13T07:12:16.036Z,18.03
2023-04-13T07:17:19.937Z,17.70
2023-04-13T07:22:22.760Z,19.63
2023-04-13T07:27:27.927Z,16.73
2023-04-13T07:32:31.661Z,15.27
2023-04-13T07:37:35.522Z,17.73
2023-04-13T07:42:39.573Z,18.00
2023-04-13T07:47:42.097Z,20.07
2023-04-13T07:52:46.312Z,18.57
2023-04-13T07:57:50.651Z,17.77
2023-04-13T08:02:55.326Z,20.20
2023-04-13T08:07:59.357Z,18.53
2023-04-13T08:13:02.246Z,19.10
2023-04-13T08:18:05.334Z,17.17
2023-04-13T08:23:09.278Z,20.07
2023-04-13T08:28:13.434Z,16.90
2023-04-13T08:33:16.276Z,19.77
2023-04-13T08:38:20.049Z,18.80
2023-04-13T08:43:25.944Z,15.40
2023-04-13T08:48:36.182Z,16.60
2023-04-13T08:53:46.713Z,16.30
2023-04-13T08:59:02.072Z,17.07
2023-04-13T09:04:10.004Z,17.50
2023-04-13T09:09:18.445Z,18.93
2023-04-13T09:14:22.101Z,16.97
2023-04-13T09:19:32.576Z,18.77
2023-04-13T09:24:41.606Z,19.67
2023-04-13T09:29:52.369Z,17.17
2023-04-13T09:35:05.378Z,11.30
2023-04-13T09:40:11.492Z,10.83
2023-04-13T09:45:13.913Z,14.83
2023-04-13T09:50:22.856Z,10.50
2023-04-13T09:55:25.363Z,10.93
2023-04-13T10:00:27.880Z,14.67
2023-04-13T10:05:39.268Z,13.43
2023-04-13T10:10:50.875Z,11.73
2023-04-13T10:16:11.276Z,13.60
2023-04-13T10:21:15.412Z,14.77
2023-04-13T10:26:17.899Z,12.00
2023-04-13T10:31:21.754Z,17.63
2023-04-13T10:36:34.980Z,15.47
2023-04-13T10:41:38.219Z,18.00
2023-04-13T10:46:51.058Z,18.03
2023-04-13T10:51:53.997Z,13.77
2023-04-13T10:56:58.284Z,8.63
2023-04-13T11:02:01.833Z,19.67
2023-04-13T11:07:07.961Z,17.17
2023-04-13T11:12:13.116Z,17.47
2023-04-13T11:17:17.765Z,13.53
2023-04-13T11:22:27.774Z,13.10
2023-04-13T11:27:30.615Z,15.97
2023-04-13T11:32:34.527Z,10.80
2023-04-13T11:37:47.035Z,10.97
2023-04-13T11:42:53.333Z,11.93
2023-04-13T11:47:57.404Z,15.97
2023-04-13T11:53:00.147Z,16.80
2023-04-13T11:58:16.633Z,12.73
2023-04-13T12:08:28.073Z,10.37
2023-04-13T12:13:51.877Z,19.00
2023-04-13T12:19:09.893Z,10.23
2023-04-13T12:24:13.173Z,13.07
2023-04-13T12:29:15.743Z,13.63
2023-04-13T12:34:18.737Z,12.60
2023-04-13T12:39:21.347Z,11.80
2023-04-13T12:44:24.009Z,7.07
2023-04-13T12:49:26.509Z,5.83
2023-04-13T12:54:30.803Z,5.40
2023-04-13T12:59:33.261Z,5.00
2023-04-13T13:04:36.315Z,5.63
2023-04-13T13:09:38.791Z,5.00
2023-04-13T13:14:41.377Z,4.43
2023-04-13T13:19:43.777Z,3.73
2023-04-13T13:24:46.281Z,4.70
2023-04-13T13:29:48.748Z,3.70
2023-04-13T13:34:51.135Z,5.03
2023-04-13T13:39:54.116Z,3.00
2023-04-13T13:44:56.655Z,3.37
2023-04-13T13:50:00.437Z,4.03
2023-04-13T13:55:11.815Z,4.10
2023-04-13T14:00:19.062Z,3.90
2023-04-13T14:05:22.563Z,3.70
2023-04-13T14:10:24.966Z,3.50
2023-04-13T14:15:27.650Z,2.50
2023-04-13T14:20:31.203Z,9.37
2023-04-13T14:25:33.636Z,4.90
2023-04-13T14:30:36.220Z,2.30
2023-04-13T14:35:38.922Z,3.93
2023-04-13T14:40:41.650Z,3.60
2023-04-13T14:45:44.095Z,5.63
2023-04-13T14:50:47.349Z,5.23
2023-04-13T14:55:49.876Z,4.07
2023-04-13T15:00:52.269Z,3.30
2023-04-13T15:06:01.282Z,5.70
2023-04-13T15:11:06.349Z,4.13
2023-04-13T15:16:08.966Z,5.30
2023-04-13T15:21:11.393Z,4.40
2023-04-13T15:26:18.227Z,5.33
2023-04-13T15:31:22.219Z,5.63
2023-04-13T15:36:24.817Z,5.40
2023-04-13T15:41:27.824Z,4.17
2023-04-13T15:46:30.488Z,4.57
2023-04-13T15:51:32.958Z,3.83
2023-04-13T15:56:35.621Z,4.57
2023-04-13T16:01:49.679Z,5.77
2023-04-13T16:07:04.994Z,3.57
2023-04-13T16:12:12.486Z,2.97
2023-04-13T16:17:15.505Z,3.50
2023-04-13T16:22:18.012Z,3.77
2023-04-13T16:27:20.536Z,4.20
2023-04-13T16:32:23.137Z,9.67
2023-04-13T16:37:25.733Z,6.57
2023-04-13T16:42:28.268Z,5.17
2023-04-13T16:47:32.387Z,4.77
2023-04-13T16:52:35.750Z,4.60
2023-04-13T16:57:38.274Z,4.53
2023-04-13T17:02:42.504Z,3.67
2023-04-13T17:07:47.726Z,9.47
2023-04-13T17:12:50.266Z,15.80
2023-04-13T17:17:52.786Z,20.23
2023-04-13T17:22:57.234Z,24.67
2023-04-13T17:27:59.678Z,17.87
2023-04-13T17:33:02.444Z,29.10
2023-04-13T17:38:05.683Z,12.50
2023-04-13T17:43:09.226Z,9.47
2023-04-13T17:48:11.764Z,14.87
2023-04-13T17:53:14.269Z,8.47
2023-04-13T17:58:16.771Z,8.23
2023-04-13T18:03:19.522Z,6.73
2023-04-13T18:08:22.159Z,3.97
2023-04-13T18:13:25.901Z,5.63
2023-04-13T18:18:28.492Z,5.43
2023-04-13T18:23:31.018Z,7.83
2023-04-13T18:28:39.037Z,9.47
2023-04-13T18:33:41.627Z,7.27
2023-04-13T18:38:45.279Z,6.47
2023-04-13T18:43:47.716Z,7.10
2023-04-13T18:48:50.454Z,6.93
2023-04-13T18:53:52.985Z,8.27
2023-04-13T18:58:55.493Z,5.93
2023-04-13T19:03:57.988Z,5.60
2023-04-13T19:09:00.665Z,5.60
2023-04-13T19:14:03.560Z,6.57
2023-04-13T19:19:06.150Z,5.03
2023-04-13T19:24:11.421Z,5.40
2023-04-13T19:29:14.637Z,5.10
2023-04-13T19:34:17.163Z,8.17
2023-04-13T19:39:19.676Z,6.73
2023-04-13T19:44:22.140Z,6.60
2023-04-13T19:49:25.833Z,7.03
2023-04-13T19:54:28.528Z,6.23
2023-04-13T19:59:31.156Z,6.17
2023-04-13T20:04:33.908Z,6.00
2023-04-13T20:09:36.510Z,9.27
2023-04-13T20:14:42.225Z,8.27
2023-04-13T20:19:44.959Z,7.30
2023-04-13T20:24:48.240Z,10.33
2023-04-13T20:29:51.992Z,6.90
2023-04-13T20:34:55.568Z,7.37
2023-04-13T20:39:58.206Z,7.23
2023-04-13T20:45:01.765Z,6.83
2023-04-13T20:50:04.809Z,5.67
2023-04-13T20:55:09.848Z,6.63
2023-04-13T21:00:15.515Z,8.10
2023-04-13T21:05:22.139Z,5.47
2023-04-13T21:10:24.812Z,6.10
2023-04-13T21:15:27.334Z,6.17
2023-04-13T21:20:29.841Z,27.47
2023-04-13T21:25:32.260Z,26.30
2023-04-13T21:30:34.677Z,7.87
2023-04-13T21:35:37.248Z,6.97
2023-04-13T21:40:39.936Z,8.73
2023-04-13T21:45:42.691Z,11.70
2023-04-13T21:50:45.083Z,10.47
2023-04-13T21:55:47.886Z,11.03
2023-04-13T22:00:50.455Z,9.90
2023-04-13T22:05:52.882Z,8.40
2023-04-13T22:10:55.609Z,8.17
2023-04-13T22:15:58.187Z,9.50
2023-04-13T22:21:00.903Z,7.30
2023-04-13T22:26:03.401Z,6.70
2023-04-13T22:31:08.149Z,6.70
2023-04-13T22:36:21.331Z,6.33
2023-04-13T22:41:23.796Z,6.33
2023-04-13T22:46:26.473Z,6.83
2023-04-13T22:51:31.811Z,6.53
2023-04-13T22:56:34.789Z,7.17
2023-04-13T23:01:37.386Z,6.97
2023-04-13T23:06:39.828Z,7.97
2023-04-13T23:11:42.289Z,7.93
2023-04-13T23:16:44.889Z,8.13
2023-04-13T23:21:47.648Z,8.27
2023-04-13T23:26:50.075Z,7.90
2023-04-13T23:31:56.389Z,8.80
2023-04-13T23:36:58.863Z,8.33
2023-04-13T23:42:01.898Z,10.23
2023-04-13T23:47:04.438Z,9.50
2023-04-13T23:52:07.726Z,9.77
2023-04-13T23:57:11.597Z,9.27
